Map

Track Data

SID SEASON NUMBER BASIN SUBBASIN NAME ISO_TIME NATURE LAT LON WMO_WIND WMO_PRES WMO_AGENCY TRACK_TYPE DIST2LAND LANDFALL IFLAG USA_AGENCY USA_ATCF_ID USA_LAT USA_LON USA_RECORD USA_STATUS USA_WIND USA_PRES USA_SSHS USA_R34_NE USA_R34_SE USA_R34_SW USA_R34_NW USA_R50_NE USA_R50_SE USA_R50_SW USA_R50_NW USA_R64_NE USA_R64_SE USA_R64_SW USA_R64_NW USA_POCI USA_ROCI USA_RMW USA_EYE TOKYO_LAT TOKYO_LON TOKYO_GRADE TOKYO_WIND TOKYO_PRES TOKYO_R50_DIR TOKYO_R50_LONG TOKYO_R50_SHORT TOKYO_R30_DIR TOKYO_R30_LONG TOKYO_R30_SHORT TOKYO_LAND CMA_LAT CMA_LON CMA_CAT CMA_WIND CMA_PRES HKO_LAT HKO_LON HKO_CAT HKO_WIND HKO_PRES NEWDELHI_LAT NEWDELHI_LON NEWDELHI_GRADE NEWDELHI_WIND NEWDELHI_PRES NEWDELHI_CI NEWDELHI_DP NEWDELHI_POCI REUNION_LAT REUNION_LON REUNION_TYPE REUNION_WIND REUNION_PRES REUNION_TNUM REUNION_CI REUNION_RMW REUNION_R34_NE REUNION_R34_SE REUNION_R34_SW REUNION_R34_NW REUNION_R50_NE REUNION_R50_SE REUNION_R50_SW REUNION_R50_NW REUNION_R64_NE REUNION_R64_SE REUNION_R64_SW REUNION_R64_NW BOM_LAT BOM_LON BOM_TYPE BOM_WIND BOM_PRES BOM_TNUM BOM_CI BOM_RMW BOM_R34_NE BOM_R34_SE BOM_R34_SW BOM_R34_NW BOM_R50_NE BOM_R50_SE BOM_R50_SW BOM_R50_NW BOM_R64_NE BOM_R64_SE BOM_R64_SW BOM_R64_NW BOM_ROCI BOM_POCI BOM_EYE BOM_POS_METHOD BOM_PRES_METHOD NADI_LAT NADI_LON NADI_CAT NADI_WIND NADI_PRES WELLINGTON_LAT WELLINGTON_LON WELLINGTON_WIND WELLINGTON_PRES DS824_LAT DS824_LON DS824_STAGE DS824_WIND DS824_PRES TD9636_LAT TD9636_LON TD9636_STAGE TD9636_WIND TD9636_PRES TD9635_LAT TD9635_LON TD9635_WIND TD9635_PRES TD9635_ROCI NEUMANN_LAT NEUMANN_LON NEUMANN_CLASS NEUMANN_WIND NEUMANN_PRES MLC_LAT MLC_LON MLC_CLASS MLC_WIND MLC_PRES USA_GUST BOM_GUST BOM_GUST_PER REUNION_GUST REUNION_GUST_PER USA_SEAHGT USA_SEARAD_NE USA_SEARAD_SE USA_SEARAD_SW USA_SEARAD_NW STORM_SPEED STORM_DIR
1926083S17129 1926 15 SI WA NOT_NAMED 1926-03-23 23:00:00 NR -16.7000 129.300 main 0 0 __________O___ -1 -16.7000 129.300 7 22 129
1926083S17129 1926 15 SI WA NOT_NAMED 1926-03-24 00:00:00 NR -16.9300 129.602 main 0 0 __________P___ -1 -16.9300 129.602 7 22 128
1926083S17129 1926 15 SI WA NOT_NAMED 1926-03-24 03:00:00 NR -17.6094 130.507 main 0 0 __________P___ -1 -17.6094 130.507 7 22 128
1926083S17129 1926 15 SI WA NOT_NAMED 1926-03-24 06:00:00 NR -18.2558 131.396 main 0 0 __________P___ -1 -18.2558 131.396 7 21 127
1926083S17129 1926 15 SI WA NOT_NAMED 1926-03-24 09:00:00 NR -18.8470 132.254 main 0 0 __________P___ -1 -18.8470 132.254 7 20 125
1926083S17129 1926 15 SI WA NOT_NAMED 1926-03-24 11:00:00 NR -19.2000 132.800 main 0 0 __________O___ -1 -19.2000 132.800 7 18 124
1926083S17129 1926 15 SI WA NOT_NAMED 1926-03-24 12:00:00 NR -19.3623 133.063 main 0 0 __________P___ -1 -19.3623 133.063 7 17 122
1926083S17129 1926 15 SI WA NOT_NAMED 1926-03-24 15:00:00 NR -19.8107 133.833 main 0 0 __________P___ -1 -19.8107 133.833 7 17 121
1926083S17129 1926 15 SI WA NOT_NAMED 1926-03-24 18:00:00 NR -20.2465 134.614 main 0 0 __________P___ -1 -20.2465 134.614 7 18 121
1926083S17129 1926 15 SP EA NOT_NAMED 1926-03-24 21:00:00 NR -20.7270 135.465 main 0 0 __________P___ -1 -20.7270 135.465 7 20 122
1926083S17129 1926 15 SP EA NOT_NAMED 1926-03-24 23:00:00 NR -21.1000 136.100 main 0 0 __________O___ -1 -21.1000 136.100 7 22 123
1926083S17129 1926 15 SP EA NOT_NAMED 1926-03-25 00:00:00 NR -21.3239 136.467 main 0 0 __________P___ -1 -21.3239 136.467 7 26 123
1926083S17129 1926 15 SP EA NOT_NAMED 1926-03-25 03:00:00 NR -22.0636 137.666 main 0 0 __________P___ -1 -22.0636 137.666 7 28 124
1926083S17129 1926 15 SP EA NOT_NAMED 1926-03-25 06:00:00 NR -22.8647 138.956 main 0 0 __________P___ -1 -22.8647 138.956 7 29 124
1926083S17129 1926 15 SP EA NOT_NAMED 1926-03-25 09:00:00 NR -23.6765 140.261 main 0 0 __________P___ -1 -23.6765 140.261 7 29 124
1926083S17129 1926 15 SP EA NOT_NAMED 1926-03-25 11:00:00 NR -24.2000 141.100 main 0 0 __________O___ -1 -24.2000 141.100 7 27 124
1926083S17129 1926 15 SP EA NOT_NAMED 1926-03-25 12:00:00 NR -24.4325 141.476 main 0 0 __________P___ -1 -24.4325 141.476 7 24 124
1926083S17129 1926 15 SP EA NOT_NAMED 1926-03-25 15:00:00 NR -25.1084 142.560 main 0 0 __________P___ -1 -25.1084 142.560 7 24 125
1926083S17129 1926 15 SP EA NOT_NAMED 1926-03-25 18:00:00 NR -25.7698 143.610 main 0 0 __________P___ -1 -25.7698 143.610 7 23 125
1926083S17129 1926 15 SP EA NOT_NAMED 1926-03-25 21:00:00 NR -26.4391 144.668 main 0 0 __________P___ -1 -26.4391 144.668 7 24 125
1926083S17129 1926 15 SP EA NOT_NAMED 1926-03-25 23:00:00 NR -26.9000 145.400 main 0 0 __________O___ -1 -26.9000 145.400 7 25 125
1926083S17129 1926 15 SP EA NOT_NAMED 1926-03-26 00:00:00 NR -27.1494 145.795 main 0 0 __________P___ -1 -27.1494 145.795 7 27 125
1926083S17129 1926 15 SP EA NOT_NAMED 1926-03-26 03:00:00 NR -27.9188 147.021 main 0 0 __________P___ -1 -27.9188 147.021 7 27 125
1926083S17129 1926 15 SP EA NOT_NAMED 1926-03-26 06:00:00 NR -28.6929 148.285 main 0 0 __________P___ -1 -28.6929 148.285 7 27 124
1926083S17129 1926 15 SP EA NOT_NAMED 1926-03-26 09:00:00 NR -29.4370 149.560 main 0 0 __________P___ -1 -29.4370 149.560 7 26 123
1926083S17129 1926 15 SP EA NOT_NAMED 1926-03-26 11:00:00 NR -29.9000 150.400 main 0 0 __________O___ -1 -29.9000 150.400 7 26 122
1926083S17129 1926 15 SP EA NOT_NAMED 1926-03-26 12:00:00 NR -30.1183 150.814 main 0 0 __________P___ -1 -30.1183 150.814 7 25 120
1926083S17129 1926 15 SP EA NOT_NAMED 1926-03-26 15:00:00 NR -30.7238 152.034 main 0 0 __________P___ -1 -30.7238 152.034 7 24 119
1926083S17129 1926 15 SP EA NOT_NAMED 1926-03-26 18:00:00 NR -31.2703 153.228 main 18 18 __________P___ -1 -31.2703 153.228 7 23 117
1926083S17129 1926 15 SP EA NOT_NAMED 1926-03-26 21:00:00 NR -31.7764 154.411 main 143 143 __________P___ -1 -31.7764 154.411 7 22 116
1926083S17129 1926 15 SP EA NOT_NAMED 1926-03-26 23:00:00 NR -32.1000 155.200 main 226 __________O___ -1 -32.1000 155.200 7 22 116

About IBTrACS Database

This database is a web-friendly format of International Best Track Archive for Climate Stewardship (IBTrACS), a global best track data archive curated by NOAA dating back to 1842.

Updated: 2021-10-19